This is the latest recevied weather packets stored in our database for station/object DO7ZT-13. If no packets are shown the sender has not sent any weather packets the latest 10 day(s).
| Time | Temp. | Humidity | Pressure | Rain* | Wind** | Luminosity | Snow |
|---|---|---|---|---|---|---|---|
| 1777442124 | 3.89° C | 52% | 1027.4 hPa | 0 mm | 1.34 m/s, 60° | - | - |
| 1777441811 | 3.89° C | 54% | 1027.4 hPa | 0 mm | 0.89 m/s, 65° | - | - |
| 1777441524 | 3.89° C | 56% | 1027.1 hPa | 0 mm | 0.45 m/s, 60° | - | - |
| 1777441211 | 3.89° C | 55% | 1027.1 hPa | 0 mm | 0.89 m/s, 78° | - | - |
| 1777440924 | 3.89° C | 57% | 1027.1 hPa | 0 mm | 0.89 m/s, 66° | - | - |
| 1777440615 | 3.89° C | 55% | 1027 hPa | 0 mm | 1.34 m/s, 102° | - | - |
| 1777440336 | 2.78° C | 57% | 1027 hPa | 0 mm | 0.89 m/s, 78° | - | - |
| 1777440023 | 2.78° C | 60% | 1027 hPa | 0 mm | 0.45 m/s, 60° | - | - |
| 1777439711 | 2.78° C | 61% | 1026.8 hPa | 0 mm | 0 m/s | - | - |
| 1777439423 | 2.78° C | 60% | 1026.8 hPa | 0 mm | 0.45 m/s, 78° | - | - |
| 1777439110 | 2.78° C | 59% | 1026.8 hPa | 0 mm | 0.89 m/s, 72° | - | - |
| 1777438823 | 2.78° C | 60% | 1026.7 hPa | 0 mm | 1.34 m/s, 60° | - | - |
| 1777438511 | 2.22° C | 60% | 1026.7 hPa | 0 mm | 0.45 m/s, 84° | - | - |
| 1777438223 | 2.22° C | 61% | 1026.7 hPa | 0 mm | 0.89 m/s, 66° | - | - |
| 1777437911 | 1.11° C | 66% | 1026.6 hPa | 0 mm | 0.45 m/s, 178° | - | - |
| 1777437623 | 0° C | 69% | 1026.6 hPa | 0 mm | 0 m/s | - | - |
| 1777437311 | 0° C | 71% | 1026.6 hPa | 0 mm | 0 m/s | - | - |
| 1777437023 | 0° C | 72% | 1026.6 hPa | 0 mm | 0 m/s | - | - |
| 1777436711 | 0° C | 73% | 1026.6 hPa | 0 mm | 0.45 m/s, 301° | - | - |
| 1777436423 | 0° C | 74% | 1026.6 hPa | 0 mm | 0 m/s | - | - |
| 1777436110 | 0° C | 75% | 1026.5 hPa | 0 mm | 0 m/s | - | - |
| 1777435823 | 0° C | 75% | 1026.5 hPa | 0 mm | 0 m/s | - | - |
| 1777435510 | 0° C | 75% | 1026.5 hPa | 0 mm | 0.45 m/s, 300° | - | - |
| 1777435223 | 0° C | 75% | 1026.3 hPa | 0 mm | 0.45 m/s, 312° | - | - |
| 1777434910 | 0° C | 75% | 1026.3 hPa | 0 mm | 0 m/s | - | - |
* Rain latest hour (hover to see other rain measurements)
** Current wind speed in m/s (hover to see current wind gust speed)